createdAt,value
2023-04-13T00:02:27.719Z,19.10
2023-04-13T00:06:21.778Z,19.00
2023-04-13T00:10:29.922Z,18.60
2023-04-13T00:14:37.328Z,15.20
2023-04-13T00:18:34.634Z,16.60
2023-04-13T00:22:35.669Z,18.20
2023-04-13T00:26:45.360Z,18.40
2023-04-13T00:30:25.571Z,17.70
2023-04-13T00:33:52.873Z,19.80
2023-04-13T00:38:07.891Z,15.00
2023-04-13T00:42:14.770Z,16.50
2023-04-13T00:46:22.105Z,16.60
2023-04-13T00:50:29.626Z,17.40
2023-04-13T00:54:09.656Z,18.20
2023-04-13T00:58:12.014Z,18.60
2023-04-13T01:02:20.358Z,14.30
2023-04-13T01:06:29.061Z,16.70
2023-04-13T01:10:44.061Z,14.70
2023-04-13T01:14:48.801Z,17.20
2023-04-13T01:18:38.468Z,18.30
2023-04-13T01:22:45.867Z,18.80
2023-04-13T01:26:56.429Z,15.10
2023-04-13T01:31:02.838Z,17.30
2023-04-13T01:35:10.329Z,17.80
2023-04-13T01:39:17.856Z,17.50
2023-04-13T01:43:26.307Z,16.80
2023-04-13T01:47:31.622Z,16.50
2023-04-13T01:51:33.012Z,12.70
2023-04-13T01:55:35.249Z,14.40
2023-04-13T01:59:02.819Z,16.20
2023-04-13T02:03:10.365Z,17.80
2023-04-13T02:07:17.922Z,18.50
2023-04-13T02:11:25.360Z,18.40
2023-04-13T02:15:33.909Z,13.30
2023-04-13T02:19:43.490Z,14.80
2023-04-13T02:23:50.901Z,15.10
2023-04-13T02:27:39.282Z,15.80
2023-04-13T02:31:49.032Z,15.80
2023-04-13T02:35:57.233Z,16.80
2023-04-13T02:40:06.705Z,14.60
2023-04-13T02:43:57.254Z,14.90
2023-04-13T02:47:57.451Z,15.40
2023-04-13T02:51:57.552Z,15.80
2023-04-13T02:55:57.864Z,15.30
2023-04-13T03:03:43.560Z,16.30
2023-04-13T03:07:51.081Z,13.40
2023-04-13T03:11:59.560Z,13.70
2023-04-13T03:16:12.923Z,14.20
2023-04-13T03:20:20.393Z,14.60
2023-04-13T03:24:31.651Z,15.30
2023-04-13T03:28:29.502Z,16.10
2023-04-13T03:32:36.950Z,12.60
2023-04-13T03:36:45.631Z,13.20
2023-04-13T03:40:53.078Z,14.90
2023-04-13T03:44:38.510Z,14.00
2023-04-13T03:48:27.792Z,14.30
2023-04-13T03:52:24.354Z,16.90
2023-04-13T03:56:25.894Z,14.40
2023-04-13T04:00:33.400Z,16.90
2023-04-13T04:03:38.748Z,17.40
2023-04-13T04:07:23.101Z,18.00
2023-04-13T04:10:47.604Z,16.30
2023-04-13T04:17:41.198Z,16.90
2023-04-13T04:21:04.591Z,12.80
2023-04-13T04:24:54.231Z,15.40
2023-04-13T04:29:00.242Z,15.30
2023-04-13T04:32:22.479Z,17.10
2023-04-13T04:36:21.207Z,16.80
2023-04-13T04:40:24.374Z,17.80
2023-04-13T04:43:36.989Z,15.00
2023-04-13T04:47:16.028Z,16.10
2023-04-13T04:50:57.277Z,18.50
2023-04-13T04:54:40.550Z,20.10
2023-04-13T04:58:29.992Z,20.00
2023-04-13T05:02:01.350Z,20.80
2023-04-13T05:04:41.189Z,16.90
2023-04-13T05:07:17.195Z,17.40
2023-04-13T05:09:55.563Z,19.60
2023-04-13T05:12:22.297Z,18.90
2023-04-13T05:15:11.655Z,19.90
2023-04-13T05:17:41.096Z,20.60
2023-04-13T05:20:28.006Z,20.80
2023-04-13T05:23:48.078Z,22.10
2023-04-13T05:26:24.806Z,16.60
2023-04-13T05:28:54.799Z,17.90
2023-04-13T05:31:53.308Z,18.50
2023-04-13T05:34:20.495Z,19.40
2023-04-13T05:37:22.486Z,23.40
2023-04-13T05:40:14.633Z,23.10
2023-04-13T05:43:05.833Z,24.90
2023-04-13T05:45:39.358Z,24.70
2023-04-13T05:48:11.802Z,27.10
2023-04-13T05:51:32.306Z,17.10
2023-04-13T05:54:02.152Z,23.30
2023-04-13T05:56:33.707Z,23.10
2023-04-13T05:59:03.876Z,26.70
2023-04-13T06:01:34.495Z,29.80
2023-04-13T06:04:23.044Z,27.10
2023-04-13T06:07:09.149Z,27.80
2023-04-13T06:09:45.420Z,27.40
2023-04-13T06:12:24.167Z,27.80
2023-04-13T06:14:52.847Z,24.60
2023-04-13T06:17:19.974Z,25.60
2023-04-13T06:19:48.979Z,19.30
2023-04-13T06:22:35.724Z,21.40
2023-04-13T06:25:02.716Z,20.70
2023-04-13T06:28:07.502Z,23.90
2023-04-13T06:30:37.995Z,21.10
2023-04-13T06:33:08.132Z,21.20
2023-04-13T06:35:52.840Z,20.40
2023-04-13T06:38:46.844Z,20.20
2023-04-13T06:41:29.529Z,19.20
2023-04-13T06:44:26.939Z,19.30
2023-04-13T06:47:42.689Z,20.40
2023-04-13T06:50:17.841Z,18.30
2023-04-13T06:52:53.250Z,17.30
2023-04-13T06:56:01.963Z,17.30
2023-04-13T06:58:45.426Z,15.50
2023-04-13T07:01:18.039Z,15.60
2023-04-13T07:04:01.696Z,16.00
2023-04-13T07:06:28.998Z,16.00
2023-04-13T07:08:55.692Z,15.10
2023-04-13T07:11:28.707Z,15.40
2023-04-13T07:13:55.408Z,14.00
2023-04-13T07:16:24.233Z,12.50
2023-04-13T07:18:51.822Z,12.10
2023-04-13T07:21:22.379Z,12.60
2023-04-13T07:24:12.366Z,12.20
2023-04-13T07:26:57.817Z,11.50
2023-04-13T07:29:25.190Z,12.10
2023-04-13T07:32:00.473Z,10.90
2023-04-13T07:35:03.061Z,10.80
2023-04-13T07:38:02.271Z,11.50
2023-04-13T07:40:39.267Z,10.50
2023-04-13T07:43:29.204Z,11.60
2023-04-13T07:45:59.197Z,11.00
2023-04-13T07:48:26.627Z,12.40
2023-04-13T07:51:08.022Z,12.00
2023-04-13T07:53:46.531Z,12.70
2023-04-13T07:56:38.851Z,11.70
2023-04-13T07:59:28.729Z,11.80
2023-04-13T08:02:07.543Z,12.80
2023-04-13T08:04:48.473Z,12.50
2023-04-13T08:07:31.971Z,12.60
2023-04-13T08:10:04.544Z,14.20
2023-04-13T08:12:46.097Z,12.50
2023-04-13T08:15:32.528Z,13.70
2023-04-13T08:18:04.087Z,11.40
2023-04-13T08:20:34.893Z,12.90
2023-04-13T08:23:19.741Z,12.30
2023-04-13T08:25:47.048Z,12.70
2023-04-13T08:28:14.887Z,11.80
2023-04-13T08:30:51.220Z,12.00
2023-04-13T08:33:19.466Z,11.80
2023-04-13T08:35:57.743Z,11.20
2023-04-13T08:38:48.548Z,12.00
2023-04-13T08:41:31.105Z,11.30
2023-04-13T08:44:07.955Z,11.80
2023-04-13T08:47:07.332Z,11.30
2023-04-13T08:50:01.315Z,11.40
2023-04-13T08:52:55.470Z,10.50
2023-04-13T08:55:25.839Z,10.50
2023-04-13T08:57:57.777Z,10.60
2023-04-13T09:00:31.883Z,10.70
2023-04-13T09:03:07.524Z,10.50
2023-04-13T09:05:45.529Z,11.10
2023-04-13T09:08:46.263Z,8.50
2023-04-13T09:11:26.727Z,8.80
2023-04-13T09:14:21.911Z,8.20
2023-04-13T09:17:21.445Z,8.00
2023-04-13T09:19:52.801Z,8.50
2023-04-13T09:22:20.980Z,7.30
2023-04-13T09:24:56.567Z,6.70
2023-04-13T09:27:43.141Z,6.80
2023-04-13T09:30:19.022Z,6.20
2023-04-13T09:32:47.874Z,6.70
2023-04-13T09:35:14.597Z,6.40
2023-04-13T09:38:05.602Z,6.40
2023-04-13T09:40:38.502Z,6.90
2023-04-13T09:43:07.178Z,7.30
2023-04-13T09:45:48.329Z,6.20
2023-04-13T09:48:21.136Z,5.80
2023-04-13T09:51:01.550Z,4.60
2023-04-13T09:53:46.653Z,5.10
2023-04-13T09:56:25.586Z,5.10
2023-04-13T09:59:05.998Z,6.10
2023-04-13T10:01:36.669Z,15.80
2023-04-13T10:04:30.287Z,7.40
2023-04-13T10:07:02.579Z,4.60
2023-04-13T10:09:51.077Z,4.30
2023-04-13T10:12:23.477Z,3.60
2023-04-13T10:14:51.217Z,3.50
2023-04-13T10:17:51.105Z,3.40
2023-04-13T10:20:18.406Z,3.10
2023-04-13T10:23:01.523Z,5.20
2023-04-13T10:25:33.459Z,4.50
2023-04-13T10:28:28.284Z,4.30
2023-04-13T10:31:05.040Z,4.30
2023-04-13T10:34:09.077Z,4.40
2023-04-13T10:36:46.356Z,3.90
2023-04-13T10:39:25.142Z,4.20
2023-04-13T10:42:18.037Z,3.50
2023-04-13T10:44:54.013Z,3.10
2023-04-13T10:47:25.864Z,2.90
2023-04-13T10:50:00.183Z,4.00
2023-04-13T10:52:27.644Z,2.90
2023-04-13T10:55:25.032Z,3.00
2023-04-13T10:58:01.121Z,3.30
2023-04-13T11:01:12.912Z,4.80
2023-04-13T11:04:05.251Z,3.30
2023-04-13T11:06:38.768Z,3.50
2023-04-13T11:09:06.133Z,3.40
2023-04-13T11:11:35.744Z,3.40
2023-04-13T11:14:04.691Z,3.40
2023-04-13T11:16:44.966Z,3.80
2023-04-13T11:19:12.672Z,4.10
2023-04-13T11:21:57.263Z,3.90
2023-04-13T11:24:26.458Z,3.90
2023-04-13T11:27:07.429Z,3.50
2023-04-13T11:29:36.871Z,4.60
2023-04-13T11:32:27.171Z,3.50
2023-04-13T11:35:06.368Z,3.60
2023-04-13T11:37:41.140Z,3.30
2023-04-13T11:40:10.000Z,3.80
2023-04-13T11:42:45.299Z,3.70
2023-04-13T11:45:15.896Z,3.90
2023-04-13T11:48:08.854Z,3.60
2023-04-13T11:50:46.366Z,3.80
2023-04-13T11:53:20.542Z,4.10
2023-04-13T11:56:06.002Z,3.60
2023-04-13T11:58:35.353Z,4.00
2023-04-13T12:01:14.368Z,3.60
2023-04-13T12:03:59.223Z,4.00
2023-04-13T12:06:34.300Z,3.60
2023-04-13T12:09:13.601Z,4.20
2023-04-13T12:11:52.108Z,4.40
2023-04-13T12:14:53.492Z,3.80
2023-04-13T12:17:57.654Z,4.60
2023-04-13T12:20:39.865Z,4.10
2023-04-13T12:23:24.303Z,3.50
2023-04-13T12:25:58.159Z,3.60
2023-04-13T12:28:34.988Z,3.90
2023-04-13T12:31:22.759Z,4.00
2023-04-13T12:33:50.953Z,3.80
2023-04-13T12:36:20.312Z,3.90
2023-04-13T12:38:59.698Z,4.30
2023-04-13T12:41:26.884Z,4.20
2023-04-13T12:44:19.211Z,4.10
2023-04-13T12:46:46.773Z,5.80
2023-04-13T12:49:16.045Z,4.50
2023-04-13T12:51:49.363Z,3.80
2023-04-13T12:54:21.757Z,4.30
2023-04-13T12:56:53.778Z,4.30
2023-04-13T12:59:22.530Z,4.20
2023-04-13T13:01:49.981Z,4.10
2023-04-13T13:04:22.860Z,3.70
2023-04-13T13:07:12.961Z,4.10
2023-04-13T13:09:41.872Z,4.50
2023-04-13T13:12:30.367Z,3.80
2023-04-13T13:15:03.807Z,4.10
2023-04-13T13:17:33.304Z,5.00
2023-04-13T13:20:03.417Z,4.10
2023-04-13T13:22:35.064Z,4.30
2023-04-13T13:25:17.769Z,3.60
2023-04-13T13:30:14.800Z,4.10
2023-04-13T13:32:49.899Z,3.90
2023-04-13T13:35:19.407Z,4.30
2023-04-13T13:38:00.327Z,4.10
2023-04-13T13:40:33.136Z,4.50
2023-04-13T13:43:49.266Z,3.80
2023-04-13T13:46:50.688Z,4.10
2023-04-13T13:49:28.417Z,4.00
2023-04-13T13:52:27.696Z,4.20
2023-04-13T13:55:18.887Z,4.70
2023-04-13T13:57:55.032Z,5.80
2023-04-13T14:00:25.201Z,4.00
2023-04-13T14:02:52.040Z,3.80
2023-04-13T14:05:22.009Z,3.40
2023-04-13T14:07:54.612Z,3.90
2023-04-13T14:10:21.950Z,3.90
2023-04-13T14:13:10.980Z,3.90
2023-04-13T14:18:36.100Z,3.50
2023-04-13T14:21:03.863Z,3.40
2023-04-13T14:23:39.717Z,3.80
2023-04-13T14:26:06.633Z,3.60
2023-04-13T14:28:33.540Z,3.50
2023-04-13T14:31:26.419Z,2.80
2023-04-13T14:34:13.270Z,3.20
2023-04-13T14:36:51.602Z,3.00
2023-04-13T14:41:57.998Z,3.60
2023-04-13T14:44:44.734Z,4.30
2023-04-13T14:47:15.304Z,4.50
2023-04-13T14:49:45.728Z,4.60
2023-04-13T14:52:13.705Z,5.80
2023-04-13T14:54:56.115Z,4.80
2023-04-13T14:57:47.442Z,4.60
2023-04-13T15:00:35.835Z,4.20
2023-04-13T15:03:23.645Z,3.70
2023-04-13T15:05:56.836Z,3.20
2023-04-13T15:08:31.954Z,3.50
2023-04-13T15:10:58.646Z,3.40
2023-04-13T15:13:28.202Z,3.80
2023-04-13T15:15:55.106Z,4.70
2023-04-13T15:18:21.499Z,4.10
2023-04-13T15:21:05.643Z,3.80
2023-04-13T15:23:37.095Z,3.20
2023-04-13T15:26:04.533Z,3.00
2023-04-13T15:28:32.431Z,3.20
2023-04-13T15:31:10.628Z,3.10
2023-04-13T15:33:39.999Z,3.60
2023-04-13T15:36:12.434Z,3.30
2023-04-13T15:41:27.332Z,4.60
2023-04-13T15:44:17.885Z,4.10
2023-04-13T15:46:45.039Z,4.30
2023-04-13T15:49:13.100Z,6.20
2023-04-13T15:51:39.882Z,23.10
2023-04-13T15:54:06.365Z,9.60
2023-04-13T15:56:33.287Z,8.10
2023-04-13T15:59:03.059Z,5.00
2023-04-13T16:01:43.574Z,141.70
2023-04-13T16:04:14.380Z,14.50
2023-04-13T16:06:44.101Z,8.80
2023-04-13T16:09:17.045Z,956.30
2023-04-13T16:12:10.174Z,292.90
2023-04-13T16:14:46.081Z,63.80
2023-04-13T16:17:18.138Z,33.60
2023-04-13T16:19:49.990Z,15.30
2023-04-13T16:22:17.360Z,34.40
2023-04-13T16:24:48.877Z,9.80
2023-04-13T16:27:42.169Z,43.90
2023-04-13T16:30:20.079Z,999.90
2023-04-13T16:32:47.642Z,999.90
2023-04-13T16:35:17.271Z,656.60
2023-04-13T16:37:44.476Z,236.70
2023-04-13T16:40:26.810Z,145.20
2023-04-13T16:42:53.323Z,74.10
2023-04-13T16:45:21.101Z,39.40
2023-04-13T16:48:11.485Z,37.40
2023-04-13T16:50:43.930Z,47.20
2023-04-13T16:53:20.908Z,64.80
2023-04-13T16:55:53.327Z,119.60
2023-04-13T16:58:20.206Z,79.30
2023-04-13T17:00:50.451Z,67.10
2023-04-13T17:03:17.694Z,69.30
2023-04-13T17:05:44.360Z,80.60
2023-04-13T17:10:25.794Z,76.50
2023-04-13T17:12:53.347Z,65.50
2023-04-13T17:15:26.621Z,47.90
2023-04-13T17:17:55.056Z,49.60
2023-04-13T17:20:31.977Z,64.70
2023-04-13T17:23:19.515Z,47.00
2023-04-13T17:26:10.563Z,56.20
2023-04-13T17:28:40.556Z,62.80
2023-04-13T17:31:10.799Z,68.30
2023-04-13T17:33:44.981Z,260.60
2023-04-13T17:36:15.448Z,110.40
2023-04-13T17:38:42.619Z,141.80
2023-04-13T17:41:18.061Z,100.40
2023-04-13T17:43:45.879Z,76.70
2023-04-13T17:46:15.883Z,97.00
2023-04-13T17:48:53.337Z,68.50
2023-04-13T17:51:21.551Z,63.60
2023-04-13T17:54:18.501Z,55.50
2023-04-13T17:56:48.449Z,69.90
2023-04-13T17:59:16.482Z,72.60
2023-04-13T18:01:44.106Z,69.80
2023-04-13T18:04:13.395Z,66.60
2023-04-13T18:06:44.243Z,66.40
2023-04-13T18:09:14.444Z,147.50
2023-04-13T18:11:42.304Z,75.00
2023-04-13T18:14:12.295Z,60.30
2023-04-13T18:16:45.558Z,51.80
2023-04-13T18:19:29.415Z,61.70
2023-04-13T18:21:59.065Z,63.60
2023-04-13T18:24:26.594Z,56.80
2023-04-13T18:26:54.008Z,55.40
2023-04-13T18:29:32.785Z,38.10
2023-04-13T18:32:04.467Z,44.70
2023-04-13T18:34:44.147Z,48.30
2023-04-13T18:37:14.914Z,43.20
2023-04-13T18:39:42.482Z,37.00
2023-04-13T18:42:10.159Z,29.80
2023-04-13T18:44:37.830Z,28.80
2023-04-13T18:47:05.415Z,30.30
2023-04-13T18:49:41.750Z,29.80
2023-04-13T18:52:28.690Z,25.60
2023-04-13T18:54:56.383Z,25.90
2023-04-13T18:57:24.288Z,29.70
2023-04-13T18:59:51.678Z,31.10
2023-04-13T19:02:26.577Z,30.10
2023-04-13T19:04:54.210Z,34.60
2023-04-13T19:07:21.550Z,35.20
2023-04-13T19:09:49.755Z,38.80
2023-04-13T19:12:17.566Z,34.50
2023-04-13T19:14:49.199Z,38.20
2023-04-13T19:17:30.942Z,36.00
2023-04-13T19:20:10.189Z,39.20
2023-04-13T19:22:40.488Z,41.00
2023-04-13T19:25:14.415Z,42.30
2023-04-13T19:27:51.638Z,40.30
2023-04-13T19:30:21.581Z,39.40
2023-04-13T19:33:00.949Z,44.10
2023-04-13T19:35:38.155Z,44.70
2023-04-13T19:38:13.728Z,43.30
2023-04-13T19:40:43.641Z,38.80
2023-04-13T19:43:14.782Z,40.40
2023-04-13T19:45:42.692Z,42.80
2023-04-13T19:48:19.940Z,36.70
2023-04-13T19:50:58.559Z,54.20
2023-04-13T19:53:37.452Z,48.80
2023-04-13T19:56:06.668Z,46.10
2023-04-13T19:58:36.460Z,45.90
2023-04-13T20:01:06.325Z,48.00
2023-04-13T20:03:40.363Z,45.20
2023-04-13T20:06:08.897Z,42.90
2023-04-13T20:08:42.163Z,43.00
2023-04-13T20:11:20.164Z,47.60
2023-04-13T20:13:53.253Z,47.80
2023-04-13T20:16:26.587Z,43.70
2023-04-13T20:18:54.029Z,47.80
2023-04-13T20:21:26.630Z,41.60
2023-04-13T20:23:54.090Z,36.30
2023-04-13T20:26:54.152Z,31.90
2023-04-13T20:29:29.312Z,48.90
2023-04-13T20:32:03.526Z,30.50
2023-04-13T20:34:35.126Z,33.70
2023-04-13T20:40:27.006Z,31.80
2023-04-13T20:43:20.715Z,25.30
2023-04-13T20:45:59.920Z,29.50
2023-04-13T20:51:32.802Z,28.10
2023-04-13T20:54:44.328Z,35.30
2023-04-13T20:57:20.198Z,31.30
2023-04-13T21:00:14.491Z,21.80
2023-04-13T21:02:50.165Z,23.40
2023-04-13T21:05:38.352Z,21.50
2023-04-13T21:09:02.360Z,33.30
2023-04-13T21:11:33.114Z,25.90
2023-04-13T21:14:56.527Z,23.50
2023-04-13T21:18:36.823Z,22.70
2023-04-13T21:21:30.618Z,21.90
2023-04-13T21:24:24.355Z,23.40
2023-04-13T21:27:22.508Z,24.20
2023-04-13T21:30:31.952Z,17.90
2023-04-13T21:33:44.026Z,17.70
2023-04-13T21:39:34.469Z,23.60
2023-04-13T21:42:17.389Z,24.70
2023-04-13T21:45:03.995Z,24.30
2023-04-13T21:47:47.354Z,31.20
2023-04-13T21:50:34.188Z,29.90
2023-04-13T21:53:32.760Z,31.00
2023-04-13T21:56:42.915Z,25.50
2023-04-13T21:59:43.575Z,27.40
2023-04-13T22:02:34.757Z,31.60
2023-04-13T22:05:55.943Z,33.00
2023-04-13T22:09:06.636Z,32.60
2023-04-13T22:12:34.979Z,32.10
2023-04-13T22:15:49.723Z,31.50
2023-04-13T22:18:20.927Z,30.00
2023-04-13T22:20:53.968Z,21.50
2023-04-13T22:23:55.608Z,23.20
2023-04-13T22:26:47.140Z,22.10
2023-04-13T22:29:51.697Z,24.30
2023-04-13T22:33:22.030Z,25.90
2023-04-13T22:36:24.959Z,26.60
2023-04-13T22:39:38.570Z,25.50
2023-04-13T22:42:52.184Z,29.60
2023-04-13T22:46:08.004Z,20.90
2023-04-13T22:49:51.720Z,23.60
2023-04-13T22:53:35.184Z,25.50
2023-04-13T22:56:33.161Z,29.60
2023-04-13T22:59:51.377Z,31.20
2023-04-13T23:02:52.956Z,26.30
2023-04-13T23:05:51.497Z,23.70
2023-04-13T23:09:39.689Z,16.80
2023-04-13T23:12:53.645Z,19.70
2023-04-13T23:16:23.775Z,21.60
2023-04-13T23:19:14.339Z,23.50
2023-04-13T23:22:43.236Z,24.90
2023-04-13T23:26:23.473Z,24.50
2023-04-13T23:29:34.152Z,24.70
2023-04-13T23:33:35.358Z,19.70
2023-04-13T23:37:30.894Z,21.40
2023-04-13T23:41:10.755Z,20.80
2023-04-13T23:45:06.175Z,22.10
2023-04-13T23:48:33.757Z,20.90
2023-04-13T23:52:02.425Z,20.30
2023-04-13T23:55:27.733Z,20.70
2023-04-13T23:59:15.205Z,17.20
